Aviation Digital Data Service (ADDS)

Output produced by METARs form (0814 UTC 28 March 2017)
found at http://www.aviationweather.gov/adds/metars/
 
KAOO 280753Z AUTO 00000KT 10SM FEW075 BKN095 12/09 A2987 RMK AO2 SLP109 T01220094
KAOO 280653Z AUTO 03004KT 10SM SCT055 OVC100 13/10 A2988 RMK AO2 SLP113 T01280100
KAOO 280553Z AUTO 00000KT 10SM BKN060 12/09 A2989 RMK AO2 SLP119 T01220094 10178 20122 58011
KAOO 280453Z AUTO 00000KT 10SM CLR 14/10 A2990 RMK AO2 SLP123 T01390100 402170067
KAOO 280353Z AUTO 00000KT 10SM BKN060 BKN080 OVC110 14/09 A2992 RMK AO2 SLP130 T01390094
KAOO 280253Z AUTO 19003KT 10SM FEW065 SCT110 16/09 A2993 RMK AO2 SLP132 T01560094 50002
KAOO 280153Z AUTO 18005KT 10SM CLR 16/09 A2994 RMK AO2 SLP138 T01560094
KAOO 280053Z AUTO 19003KT 10SM CLR 17/09 A2993 RMK AO2 SLP134 T01670094
KAOO 272353Z AUTO 23004KT 10SM CLR 17/09 A2992 RMK AO2 SLP132 T01670089 10217 20167 53001
KAOO 272253Z AUTO 23007KT 10SM SCT060 19/10 A2992 RMK AO2 SLP130 T01890100
KAOO 272153Z AUTO 24009KT 10SM BKN055 OVC070 20/09 A2992 RMK AO2 SLP128 T02000094
KAOO 272053Z AUTO 24010G19KT 10SM SCT055 BKN070 22/10 A2992 RMK AO2 SLP129 T02170100 56018
KAOO 271953Z AUTO 26010KT 10SM FEW050 FEW065 21/09 A2993 RMK AO2 SLP133 T02110094
KAOO 271853Z AUTO 25012KT 10SM SCT065 BKN080 20/11 A2995 RMK AO2 SLP141 T02000111
KAOO 271753Z AUTO 20010KT 10SM FEW050 SCT070 18/12 A2997 RMK AO2 SLP150 60000 T01830122 10183 20072 56015
KAOO 271653Z AUTO 22012KT 10SM SCT065 17/13 A2998 RMK AO2 SLP153 T01720128
KAOO 271553Z AUTO 22005KT 10SM FEW010 FEW037 BKN045 14/12 A3001 RMK AO2 SLP164 T01440117
KAOO 271526Z AUTO 20011KT 10SM SCT008 SCT075 13/11 A3001 RMK AO2 T01330106
KAOO 271453Z AUTO 23006KT 10SM OVC007 12/09 A3002 RMK AO2 SLP170 60000 T01170094 58001
KAOO 271353Z AUTO 20005KT 10SM OVC005 09/08 A3002 RMK AO2 CIG 004V009 SLP172 T00940078
KAOO 271319Z AUTO 23003KT 10SM BKN004 OVC009 08/07 A3003 RMK AO2 T00830072
KAOO 271253Z AUTO 20005KT 10SM OVC007 08/07 A3003 RMK AO2 RAE1158 SLP175 P0000 T00830072
KAOO 271233Z AUTO 17004KT 10SM BKN008 BKN011 OVC020 08/07 A3003 RMK AO2 RAE1158 P0000 T00780067
KAOO 271223Z AUTO 19005KT 10SM BKN010 BKN021 OVC110 08/07 A3003 RMK AO2 RAE1158 CIG 007V013 P0000 T00780067
KAOO 271153Z AUTO 16006KT 10SM -RA FEW010 BKN022 OVC070 07/06 A3002 RMK AO2 SLP173 P0003 60011 70036 T00720061 10072 20067 58001
KAOO 271111Z AUTO 00000KT 4SM -RA BR SCT008 BKN026 OVC042 07/06 A3003 RMK AO2 P0003 T00720061
KAOO 271101Z AUTO 20003KT 7SM -RA BKN008 OVC014 07/07 A3003 RMK AO2 CIG 005V010 P0001 T00720067
KAOO 271053Z AUTO 16003KT 5SM -RA BR SCT005 BKN010 OVC029 07/07 A3003 RMK AO2 RAB10 SLP176 P0003 T00720067
KAOO 270953Z AUTO 00000KT 10SM OVC006 07/07 A3002 RMK AO2 SLP174 T00720067
KAOO 270853Z AUTO 20004KT 10SM OVC007 07/06 A3003 RMK AO2 SLP174 60005 T00720061 56020
KAOO 270753Z AUTO 16008KT 10SM BKN009 OVC014 07/06 A3004 RMK AO2 RAE38 CIG 006V012 SLP179 P0004 T00720061
KAOO 270653Z AUTO 16008KT 6SM -RA BR OVC005 07/06 A3006 RMK AO2 RAE13B43 CIG 004V009 SLP187 P0001 T00670061
KAOO 270553Z AUTO 15004KT 10SM -RA OVC008 07/06 A3009 RMK AO2 RAB01 SLP196 P0007 60025 T00720061 10072 20067 56026
KAOO 270453Z AUTO 15007KT 10SM OVC007 07/06 A3010 RMK AO2 RAE37 CIG 005V010 SLP201 P0004 T00670056 401000067
KAOO 270409Z AUTO 12007KT 6SM -RA BR BKN007 BKN011 OVC025 07/06 A3012 RMK AO2 CIG 004V009 P0004 T00670061
KAOO 270353Z AUTO 12008KT 6SM -RA BR FEW007 BKN010 OVC014 07/06 A3013 RMK AO2 PRESFR SLP212 P0009 T00670061
KAOO 270317Z AUTO 16005KT 5SM -RA BR OVC006 07/06 A3016 RMK AO2 CIG 003V008 P0003 T00670061
KAOO 270253Z AUTO 17003KT 4SM -RA BR OVC004 07/06 A3017 RMK AO2 SLP223 P0004 60005 T00720061 58001
KAOO 270153Z AUTO 14004KT 3SM -RA BR OVC003 07/06 A3018 RMK AO2 RAB28 SLP226 P0001 T00670061
KAOO 270111Z AUTO 14006KT 2 1/2SM BR OVC003 07/06 A3017 RMK AO2 T00670061
KAOO 270053Z AUTO 13009KT 3SM BR OVC003 07/06 A3017 RMK AO2 SLP225 T00670061
KAOO 262353Z AUTO 13006KT 3SM BR OVC003 07/06 A3017 RMK AO2 SLP222 T00670061 10083 20067 55003
KAOO 262339Z AUTO 13007KT 3SM BR OVC003 07/06 A3017 RMK AO2 T00670061
KAOO 262253Z AUTO 13006KT 2 1/2SM BR OVC003 07/06 A3016 RMK AO2 SLP222 T00670061
KAOO 262204Z AUTO 13008KT 2 1/2SM BR OVC004 07/06 A3016 RMK AO2 T00720061
KAOO 262153Z AUTO 12006KT 4SM BR OVC005 07/06 A3016 RMK AO2 SLP220 T00720061
KAOO 262053Z AUTO 14008KT 6SM BR OVC006 07/06 A3018 RMK AO2 SLP225 T00720061 56016